createdAt,value
2018-05-26T00:00:01.873Z,69.00
2018-05-26T00:02:30.221Z,69.20
2018-05-26T00:04:58.567Z,69.80
2018-05-26T00:07:26.919Z,70.70
2018-05-26T00:09:55.988Z,70.70
2018-05-26T00:12:24.312Z,70.70
2018-05-26T00:14:53.390Z,71.00
2018-05-26T00:17:22.491Z,71.00
2018-05-26T00:19:52.250Z,71.20
2018-05-26T00:22:20.576Z,71.10
2018-05-26T00:24:48.886Z,71.50
2018-05-26T00:27:17.247Z,72.50
2018-05-26T00:29:45.559Z,73.70
2018-05-26T00:32:13.906Z,73.70
2018-05-26T00:34:42.979Z,74.10
2018-05-26T00:37:11.315Z,74.00
2018-05-26T00:39:39.638Z,74.10
2018-05-26T00:42:07.970Z,74.50
2018-05-26T00:44:37.085Z,75.60
2018-05-26T00:47:05.393Z,75.60
2018-05-26T00:49:33.730Z,75.10
2018-05-26T00:52:02.823Z,76.00
2018-05-26T00:54:32.247Z,76.00
2018-05-26T00:57:00.588Z,76.30
2018-05-26T00:59:28.936Z,76.40
2018-05-26T01:01:57.264Z,76.80
2018-05-26T01:04:26.368Z,77.00
2018-05-26T01:06:55.434Z,77.30
2018-05-26T01:09:23.785Z,77.20
2018-05-26T01:11:52.140Z,77.50
2018-05-26T01:14:21.217Z,77.50
2018-05-26T01:16:49.539Z,77.50
2018-05-26T01:19:17.852Z,78.00
2018-05-26T01:21:46.223Z,78.90
2018-05-26T01:24:14.551Z,79.10
2018-05-26T01:26:43.630Z,80.00
2018-05-26T01:29:11.928Z,80.00
2018-05-26T01:31:40.275Z,79.70
2018-05-26T01:34:08.583Z,79.80
2018-05-26T01:36:36.914Z,79.90
2018-05-26T01:39:05.228Z,80.00
2018-05-26T01:41:33.554Z,80.40
2018-05-26T01:44:02.660Z,81.20
2018-05-26T01:46:30.985Z,81.20
2018-05-26T01:48:59.329Z,82.20
2018-05-26T01:51:28.263Z,82.60
2018-05-26T01:53:56.585Z,82.80
2018-05-26T01:56:26.867Z,83.30
2018-05-26T01:58:55.270Z,83.20
2018-05-26T02:01:24.551Z,83.30
2018-05-26T02:03:53.782Z,83.70
2018-05-26T02:06:22.089Z,83.70
2018-05-26T02:08:50.420Z,84.00
2018-05-26T02:11:18.721Z,84.00
2018-05-26T02:13:47.079Z,83.80
2018-05-26T02:16:17.710Z,84.50
2018-05-26T02:18:46.198Z,84.50
2018-05-26T02:21:14.538Z,84.10
2018-05-26T02:23:43.657Z,84.30
2018-05-26T02:26:11.986Z,84.30
2018-05-26T02:28:40.298Z,83.90
2018-05-26T02:31:08.631Z,84.20
2018-05-26T02:33:36.939Z,84.90
2018-05-26T02:36:05.257Z,84.70
2018-05-26T02:38:33.566Z,85.00
2018-05-26T02:41:02.895Z,85.60
2018-05-26T02:43:31.203Z,85.40
2018-05-26T02:45:59.559Z,85.70
2018-05-26T02:48:27.919Z,86.00
2018-05-26T02:50:56.274Z,86.10
2018-05-26T02:53:24.579Z,86.20
2018-05-26T02:55:52.886Z,85.90
2018-05-26T02:58:21.238Z,85.60
2018-05-26T03:00:49.565Z,86.10
2018-05-26T03:03:18.661Z,87.00
2018-05-26T03:05:53.495Z,86.50
2018-05-26T03:08:28.211Z,86.50
2018-05-26T03:11:02.260Z,86.50
2018-05-26T03:13:36.187Z,86.00
2018-05-26T03:19:06.047Z,86.80
2018-05-26T03:21:35.119Z,86.80
2018-05-26T03:24:03.467Z,86.80
2018-05-26T03:26:31.790Z,87.10
2018-05-26T03:29:00.113Z,87.50
2018-05-26T03:31:29.220Z,87.20
2018-05-26T03:33:57.597Z,87.10
2018-05-26T03:36:26.695Z,87.30
2018-05-26T03:38:54.967Z,87.30
2018-05-26T03:41:24.063Z,87.30
2018-05-26T03:43:53.138Z,87.30
2018-05-26T03:46:21.859Z,87.30
2018-05-26T03:48:50.929Z,87.30
2018-05-26T03:51:19.229Z,87.30
2018-05-26T03:53:48.322Z,87.30
2018-05-26T03:56:29.226Z,87.00
2018-05-26T03:59:09.483Z,86.90
2018-05-26T04:01:37.815Z,86.70
2018-05-26T04:04:06.133Z,86.50
2018-05-26T04:06:34.485Z,86.50
2018-05-26T04:09:02.787Z,86.90
2018-05-26T04:11:31.144Z,86.70
2018-05-26T04:13:59.446Z,86.60
2018-05-26T04:16:28.543Z,86.50
2018-05-26T04:18:57.621Z,86.50
2018-05-26T04:21:25.943Z,86.40
2018-05-26T04:23:54.357Z,86.20
2018-05-26T04:26:22.697Z,86.00
2018-05-26T04:28:51.017Z,85.90
2018-05-26T04:31:19.978Z,85.70
2018-05-26T04:33:48.304Z,85.40
2018-05-26T04:36:16.639Z,85.30
2018-05-26T04:38:45.731Z,85.00
2018-05-26T04:41:14.806Z,84.70
2018-05-26T04:43:44.114Z,84.70
2018-05-26T04:46:12.427Z,84.70
2018-05-26T04:48:40.753Z,84.50
2018-05-26T04:51:09.062Z,84.30
2018-05-26T04:53:38.164Z,84.20
2018-05-26T04:56:07.276Z,84.80
2018-05-26T04:58:36.375Z,83.90
2018-05-26T05:01:05.496Z,83.50
2018-05-26T05:03:33.821Z,83.50
2018-05-26T05:06:02.172Z,83.30
2018-05-26T05:08:30.504Z,83.30
2018-05-26T05:10:59.603Z,83.10
2018-05-26T05:13:28.707Z,81.30
2018-05-26T05:15:57.810Z,79.20
2018-05-26T05:18:26.880Z,77.80
2018-05-26T05:20:55.269Z,77.70
2018-05-26T05:23:23.578Z,77.00
2018-05-26T05:25:52.782Z,74.90
2018-05-26T05:28:21.083Z,74.90
2018-05-26T05:30:49.414Z,74.20
2018-05-26T05:33:17.712Z,73.10
2018-05-26T05:35:46.875Z,70.50
2018-05-26T05:38:15.168Z,70.40
2018-05-26T05:40:44.263Z,68.90
2018-05-26T05:43:13.488Z,67.90
2018-05-26T05:45:41.822Z,67.10
2018-05-26T05:48:10.255Z,66.20
2018-05-26T05:50:38.612Z,64.40
2018-05-26T05:53:06.988Z,63.00
2018-05-26T05:55:35.329Z,62.60
2018-05-26T05:58:03.663Z,60.50
2018-05-26T06:00:33.486Z,57.30
2018-05-26T06:03:01.820Z,57.30
2018-05-26T06:05:30.116Z,56.40
2018-05-26T06:07:58.441Z,55.00
2018-05-26T06:10:27.541Z,52.60
2018-05-26T06:12:56.634Z,51.30
2018-05-26T06:15:25.711Z,50.00
2018-05-26T06:17:54.068Z,50.50
2018-05-26T06:20:22.388Z,49.40
2018-05-26T06:22:51.478Z,47.50
2018-05-26T06:25:20.578Z,46.40
2018-05-26T06:27:49.670Z,45.20
2018-05-26T06:30:17.987Z,45.30
2018-05-26T06:32:46.302Z,44.40
2018-05-26T06:35:14.627Z,43.30
2018-05-26T06:37:44.232Z,42.20
2018-05-26T06:40:12.530Z,41.50
2018-05-26T06:42:42.251Z,40.00
2018-05-26T06:45:11.383Z,38.10
2018-05-26T06:47:39.728Z,38.00
2018-05-26T06:50:08.861Z,37.90
2018-05-26T06:52:37.202Z,37.80
2018-05-26T06:55:05.563Z,37.00
2018-05-26T06:57:34.863Z,35.60
2018-05-26T07:00:03.192Z,34.60
2018-05-26T07:02:32.307Z,33.60
2018-05-26T07:05:00.613Z,33.50
2018-05-26T07:07:28.956Z,32.30
2018-05-26T07:09:58.062Z,30.80
2018-05-26T07:12:26.443Z,30.80
2018-05-26T07:14:54.868Z,30.00
2018-05-26T07:17:23.353Z,29.80
2018-05-26T07:19:51.668Z,29.50
2018-05-26T07:22:20.788Z,28.30
2018-05-26T07:24:49.181Z,28.30
2018-05-26T07:27:17.519Z,28.10
2018-05-26T07:29:47.506Z,28.00
2018-05-26T07:32:16.333Z,28.00
2018-05-26T07:34:50.557Z,27.60
2018-05-26T07:37:18.942Z,27.50
2018-05-26T07:39:47.323Z,26.80
2018-05-26T07:42:16.437Z,26.00
2018-05-26T07:44:44.763Z,26.00
2018-05-26T07:47:17.309Z,25.70
2018-05-26T07:49:46.389Z,25.00
2018-05-26T07:52:15.477Z,24.80
2018-05-26T07:54:43.802Z,24.70
2018-05-26T07:57:12.131Z,24.00
2018-05-26T07:59:40.459Z,24.40
2018-05-26T08:02:08.774Z,24.10
2018-05-26T08:04:37.132Z,23.30
2018-05-26T08:07:05.460Z,23.20
2018-05-26T08:09:33.810Z,23.20
2018-05-26T08:12:02.148Z,22.80
2018-05-26T08:14:30.476Z,22.50
2018-05-26T08:16:58.811Z,22.50
2018-05-26T08:19:27.128Z,22.10
2018-05-26T08:21:55.466Z,21.60
2018-05-26T08:24:24.577Z,21.40
2018-05-26T08:26:52.893Z,21.40
2018-05-26T08:29:21.215Z,21.70
2018-05-26T08:31:49.533Z,21.40
2018-05-26T08:34:17.876Z,20.90
2018-05-26T08:36:46.987Z,21.00
2018-05-26T08:39:16.089Z,20.60
2018-05-26T08:41:45.206Z,20.40
2018-05-26T08:44:13.557Z,20.30
2018-05-26T08:46:41.855Z,20.00
2018-05-26T08:49:10.230Z,19.40
2018-05-26T08:51:38.587Z,19.40
2018-05-26T08:54:06.933Z,19.10
2018-05-26T08:56:35.240Z,18.50
2018-05-26T08:59:03.583Z,18.00
2018-05-26T09:01:31.897Z,17.40
2018-05-26T09:04:00.229Z,17.90
2018-05-26T09:06:28.581Z,18.00
2018-05-26T09:08:56.921Z,18.00
2018-05-26T09:11:25.253Z,18.10
2018-05-26T09:13:54.195Z,18.00
2018-05-26T09:16:22.511Z,17.90
2018-05-26T09:18:50.852Z,17.80
2018-05-26T09:21:19.198Z,17.80
2018-05-26T09:23:48.309Z,17.20
2018-05-26T09:26:17.419Z,17.50
2018-05-26T09:28:45.727Z,17.40
2018-05-26T09:31:14.084Z,16.80
2018-05-26T09:33:43.176Z,17.30
2018-05-26T09:36:12.673Z,16.50
2018-05-26T09:38:41.740Z,17.30
2018-05-26T09:41:10.059Z,17.30
2018-05-26T09:43:39.229Z,17.30
2018-05-26T09:46:07.513Z,17.30
2018-05-26T09:48:35.859Z,17.50
2018-05-26T09:51:04.188Z,17.30
2018-05-26T09:53:32.911Z,17.40
2018-05-26T09:56:01.235Z,17.90
2018-05-26T09:58:30.692Z,17.20
2018-05-26T10:00:59.008Z,17.30
2018-05-26T10:03:27.968Z,16.70
2018-05-26T10:05:56.383Z,16.60
2018-05-26T10:08:25.618Z,16.60
2018-05-26T10:10:54.690Z,16.90
2018-05-26T10:13:23.488Z,16.80
2018-05-26T10:15:51.785Z,16.00
2018-05-26T10:18:21.591Z,16.50
2018-05-26T10:20:50.085Z,16.50
2018-05-26T10:23:18.439Z,16.00
2018-05-26T10:25:46.786Z,15.70
2018-05-26T10:28:15.385Z,16.00
2018-05-26T10:30:43.727Z,16.50
2018-05-26T10:33:12.039Z,16.50
2018-05-26T10:35:40.429Z,16.50
2018-05-26T10:38:09.540Z,16.70
2018-05-26T10:40:37.856Z,16.70
2018-05-26T10:43:06.808Z,16.30
2018-05-26T10:45:40.037Z,16.30
2018-05-26T10:48:08.365Z,16.10
2018-05-26T10:50:37.462Z,16.30
2018-05-26T10:53:06.553Z,15.40
2018-05-26T10:55:35.663Z,15.30
2018-05-26T10:58:04.739Z,14.90
2018-05-26T11:00:33.812Z,14.70
2018-05-26T11:03:02.153Z,14.70
2018-05-26T11:05:30.462Z,15.70
2018-05-26T11:07:59.008Z,16.00
2018-05-26T11:10:27.331Z,16.30
2018-05-26T11:12:55.646Z,15.90
2018-05-26T11:15:24.064Z,15.60
2018-05-26T11:17:53.135Z,15.00
2018-05-26T11:20:21.481Z,14.90
2018-05-26T11:22:51.359Z,14.50
2018-05-26T11:25:20.874Z,13.80
2018-05-26T11:27:49.249Z,13.80
2018-05-26T11:30:18.311Z,13.90
2018-05-26T11:32:46.639Z,13.90
2018-05-26T11:35:14.970Z,13.80
2018-05-26T11:37:43.281Z,14.20
2018-05-26T11:40:12.373Z,14.70
2018-05-26T11:42:41.459Z,15.00
2018-05-26T11:45:09.787Z,15.00
2018-05-26T11:47:38.123Z,15.40
2018-05-26T11:50:07.249Z,15.80
2018-05-26T11:52:35.558Z,16.10
2018-05-26T11:55:03.883Z,16.80
2018-05-26T11:57:33.747Z,17.40
2018-05-26T12:00:02.072Z,17.40
2018-05-26T12:02:30.408Z,17.60
2018-05-26T12:04:59.464Z,17.70
2018-05-26T12:07:27.818Z,17.50
2018-05-26T12:09:56.140Z,18.50
2018-05-26T12:12:25.277Z,18.00
2018-05-26T12:14:53.655Z,18.00
2018-05-26T12:17:22.101Z,18.30
2018-05-26T12:19:50.374Z,17.70
2018-05-26T12:22:18.706Z,17.50
2018-05-26T12:24:47.030Z,18.50
2018-05-26T12:27:15.346Z,18.10
2018-05-26T12:29:43.665Z,18.30
2018-05-26T12:32:11.997Z,18.30
2018-05-26T12:34:41.094Z,18.30
2018-05-26T12:37:10.303Z,18.20
2018-05-26T12:39:38.635Z,18.20
2018-05-26T12:42:07.276Z,17.80
2018-05-26T12:44:35.638Z,18.80
2018-05-26T12:47:15.035Z,20.80
2018-05-26T12:49:48.944Z,20.40
2018-05-26T12:52:17.312Z,21.40
2018-05-26T12:54:46.407Z,22.70
2018-05-26T12:57:14.768Z,22.70
2018-05-26T12:59:43.128Z,23.40
2018-05-26T13:02:12.279Z,24.40
2018-05-26T13:04:40.589Z,24.30
2018-05-26T13:07:08.926Z,23.70
2018-05-26T13:09:37.244Z,22.70
2018-05-26T13:12:05.571Z,21.70
2018-05-26T13:14:34.663Z,19.80
2018-05-26T13:17:03.813Z,19.30
2018-05-26T13:19:32.134Z,19.20
2018-05-26T13:22:01.263Z,19.20
2018-05-26T13:24:29.579Z,19.10
2018-05-26T13:26:57.894Z,18.50
2018-05-26T13:29:26.814Z,18.50
2018-05-26T13:31:55.147Z,18.00
2018-05-26T13:34:25.028Z,17.50
2018-05-26T13:36:53.458Z,17.40
2018-05-26T13:39:21.799Z,17.30
2018-05-26T13:41:50.111Z,17.40
2018-05-26T13:44:19.404Z,17.40
2018-05-26T13:46:47.753Z,17.90
2018-05-26T13:49:16.712Z,17.60
2018-05-26T13:51:45.102Z,17.20
2018-05-26T13:54:13.498Z,16.90
2018-05-26T13:56:41.788Z,16.60
2018-05-26T13:59:10.093Z,16.70
2018-05-26T14:01:38.470Z,16.70
2018-05-26T14:04:06.778Z,16.70
2018-05-26T14:06:35.129Z,16.40
2018-05-26T14:09:03.674Z,16.40
2018-05-26T14:11:32.003Z,16.30
2018-05-26T14:14:00.402Z,16.10
2018-05-26T14:16:28.710Z,16.00
2018-05-26T14:18:57.043Z,16.10
2018-05-26T14:21:25.367Z,16.10
2018-05-26T14:23:53.700Z,16.20
2018-05-26T14:26:22.033Z,16.40
2018-05-26T14:28:50.365Z,16.90
2018-05-26T14:31:19.716Z,18.50
2018-05-26T14:33:53.097Z,18.30
2018-05-26T14:36:22.979Z,19.20
2018-05-26T14:38:51.286Z,19.10
2018-05-26T14:41:19.640Z,18.90
2018-05-26T14:43:48.052Z,19.00
2018-05-26T14:46:16.403Z,19.20
2018-05-26T14:48:44.759Z,20.10
2018-05-26T14:51:13.832Z,19.90
2018-05-26T14:53:42.210Z,19.80
2018-05-26T14:56:10.583Z,19.50
2018-05-26T14:58:38.917Z,20.00
2018-05-26T15:01:07.234Z,21.00
2018-05-26T15:03:35.586Z,22.00
2018-05-26T15:06:03.897Z,22.90
2018-05-26T15:08:32.233Z,23.90
2018-05-26T15:11:01.373Z,24.40
2018-05-26T15:13:29.719Z,24.40
2018-05-26T15:15:59.845Z,24.60
2018-05-26T15:18:28.934Z,24.00
2018-05-26T15:20:58.042Z,24.20
2018-05-26T15:23:27.115Z,24.90
2018-05-26T15:25:55.458Z,24.90
2018-05-26T15:28:23.769Z,25.60
2018-05-26T15:30:52.103Z,25.70
2018-05-26T15:33:20.444Z,26.20
2018-05-26T15:35:48.738Z,26.50
2018-05-26T15:38:17.836Z,26.90
2018-05-26T15:40:46.910Z,27.50
2018-05-26T15:43:16.250Z,27.50
2018-05-26T15:45:45.611Z,29.00
2018-05-26T15:48:13.965Z,29.00
2018-05-26T15:50:42.290Z,29.30
2018-05-26T15:53:10.626Z,29.50
2018-05-26T15:55:38.980Z,29.70
2018-05-26T15:58:07.339Z,29.80
2018-05-26T16:00:35.654Z,30.20
2018-05-26T16:03:04.037Z,30.50
2018-05-26T16:05:33.127Z,31.00
2018-05-26T16:08:02.197Z,31.50
2018-05-26T16:10:30.539Z,31.50
2018-05-26T16:12:58.853Z,31.90
2018-05-26T16:15:27.171Z,32.50
2018-05-26T16:17:56.297Z,32.90
2018-05-26T16:20:24.632Z,32.80
2018-05-26T16:22:53.006Z,33.40
2018-05-26T16:25:21.339Z,34.00
2018-05-26T16:27:49.707Z,34.70
2018-05-26T16:30:18.040Z,35.10
2018-05-26T16:32:47.290Z,35.50
2018-05-26T16:35:16.358Z,36.50
2018-05-26T16:37:45.478Z,37.10
2018-05-26T16:40:14.626Z,37.40
2018-05-26T16:42:42.946Z,37.40
2018-05-26T16:45:12.970Z,38.90
2018-05-26T16:47:42.038Z,38.60
2018-05-26T16:50:11.258Z,38.30
2018-05-26T16:52:39.719Z,38.20
2018-05-26T16:55:08.959Z,38.70
2018-05-26T16:57:37.420Z,38.70
2018-05-26T17:00:06.020Z,39.00
2018-05-26T17:02:34.364Z,39.30
2018-05-26T17:05:03.518Z,40.40
2018-05-26T17:07:32.650Z,40.80
2018-05-26T17:10:00.969Z,40.70
2018-05-26T17:12:29.451Z,41.20
2018-05-26T17:14:57.776Z,41.50
2018-05-26T17:17:26.106Z,42.30
2018-05-26T17:19:54.482Z,42.50
2018-05-26T17:22:23.686Z,44.10
2018-05-26T17:24:52.038Z,43.60
2018-05-26T17:27:20.400Z,43.70
2018-05-26T17:29:48.702Z,43.70
2018-05-26T17:32:17.011Z,44.30
2018-05-26T17:34:45.348Z,44.80
2018-05-26T17:37:13.749Z,45.30
2018-05-26T17:39:42.079Z,45.20
2018-05-26T17:42:12.806Z,45.60
2018-05-26T17:44:41.143Z,45.60
2018-05-26T17:47:09.477Z,45.50
2018-05-26T17:49:37.810Z,45.80
2018-05-26T17:52:06.141Z,45.70
2018-05-26T17:54:34.445Z,46.40
2018-05-26T17:57:03.541Z,47.20
2018-05-26T17:59:32.631Z,47.20
2018-05-26T18:02:00.984Z,47.20
2018-05-26T18:04:29.339Z,47.70
2018-05-26T18:06:57.664Z,48.00
2018-05-26T18:09:26.842Z,48.30
2018-05-26T18:11:55.672Z,48.30
2018-05-26T18:14:24.744Z,48.30
2018-05-26T18:16:53.115Z,48.20
2018-05-26T18:19:21.475Z,48.40
2018-05-26T18:21:49.819Z,48.30
2018-05-26T18:24:18.896Z,48.40
2018-05-26T18:26:47.240Z,48.40
2018-05-26T18:29:15.572Z,48.50
2018-05-26T18:31:43.902Z,48.60
2018-05-26T18:34:12.249Z,48.40
2018-05-26T18:36:41.322Z,49.10
2018-05-26T18:39:09.697Z,49.00
2018-05-26T18:41:38.402Z,49.10
2018-05-26T18:44:08.235Z,49.60
2018-05-26T18:46:37.313Z,49.70
2018-05-26T18:49:05.775Z,49.60
2018-05-26T18:51:34.908Z,50.10
2018-05-26T18:54:03.365Z,50.10
2018-05-26T18:56:31.728Z,50.10
2018-05-26T18:59:00.098Z,50.10
2018-05-26T19:01:28.401Z,50.20
2018-05-26T19:03:56.736Z,50.20
2018-05-26T19:06:25.820Z,50.40
2018-05-26T19:08:54.928Z,50.30
2018-05-26T19:11:24.045Z,50.90
2018-05-26T19:13:52.358Z,50.90
2018-05-26T19:16:20.912Z,51.10
2018-05-26T19:18:49.996Z,51.20
2018-05-26T19:21:18.356Z,51.30
2018-05-26T19:23:46.823Z,51.00
2018-05-26T19:26:15.232Z,51.70
2018-05-26T19:28:44.327Z,52.20
2018-05-26T19:31:12.783Z,52.10
2018-05-26T19:33:41.982Z,52.40
2018-05-26T19:36:10.359Z,52.80
2018-05-26T19:38:38.691Z,52.70
2018-05-26T19:41:07.045Z,53.20
2018-05-26T19:43:35.387Z,53.50
2018-05-26T19:46:03.720Z,53.70
2018-05-26T19:48:32.061Z,53.80
2018-05-26T19:51:00.451Z,54.30
2018-05-26T19:53:28.772Z,54.30
2018-05-26T19:55:58.960Z,54.70
2018-05-26T19:58:27.286Z,54.70
2018-05-26T20:00:56.539Z,54.90
2018-05-26T20:03:25.831Z,55.30
2018-05-26T20:05:54.856Z,55.30
2018-05-26T20:08:24.079Z,55.20
2018-05-26T20:10:52.564Z,55.20
2018-05-26T20:13:21.654Z,55.90
2018-05-26T20:15:50.500Z,55.90
2018-05-26T20:18:18.846Z,55.80
2018-05-26T20:20:47.958Z,56.60
2018-05-26T20:23:16.397Z,56.60
2018-05-26T20:25:44.745Z,56.80
2018-05-26T20:28:13.081Z,57.10
2018-05-26T20:30:41.407Z,57.50
2018-05-26T20:33:10.164Z,57.60
2018-05-26T20:35:39.267Z,58.80
2018-05-26T20:38:07.591Z,58.80
2018-05-26T20:40:36.146Z,59.10
2018-05-26T20:43:04.650Z,59.40
2018-05-26T20:45:33.215Z,59.50
2018-05-26T20:48:01.750Z,59.60
2018-05-26T20:50:30.296Z,60.00
2018-05-26T20:52:58.675Z,60.20
2018-05-26T20:55:27.860Z,60.40
2018-05-26T20:57:57.993Z,61.00
2018-05-26T21:00:27.564Z,60.90
2018-05-26T21:02:55.934Z,60.90
2018-05-26T21:05:24.295Z,61.10
2018-05-26T21:07:52.627Z,60.70
2018-05-26T21:10:22.479Z,61.20
2018-05-26T21:12:50.795Z,61.20
2018-05-26T21:15:19.126Z,61.20
2018-05-26T21:17:48.293Z,62.60
2018-05-26T21:20:16.630Z,62.60
2018-05-26T21:22:45.149Z,63.10
2018-05-26T21:25:13.504Z,63.30
2018-05-26T21:27:41.846Z,64.10
2018-05-26T21:30:10.569Z,63.90
2018-05-26T21:32:39.500Z,63.90
2018-05-26T21:35:07.909Z,64.30
2018-05-26T21:37:36.930Z,64.80
2018-05-26T21:40:05.261Z,64.90
2018-05-26T21:42:34.332Z,64.90
2018-05-26T21:45:02.692Z,64.80
2018-05-26T21:47:32.515Z,65.30
2018-05-26T21:50:00.838Z,65.30
2018-05-26T21:52:29.162Z,65.70
2018-05-26T21:54:58.255Z,66.30
2018-05-26T21:57:27.345Z,66.80
2018-05-26T21:59:55.658Z,66.70
2018-05-26T22:02:23.998Z,67.90
2018-05-26T22:04:52.385Z,67.00
2018-05-26T22:07:20.710Z,67.30
2018-05-26T22:09:49.059Z,67.20
2018-05-26T22:12:17.399Z,67.30
2018-05-26T22:14:45.760Z,67.90
2018-05-26T22:17:14.229Z,68.40
2018-05-26T22:19:42.562Z,68.90
2018-05-26T22:22:10.937Z,69.20
2018-05-26T22:24:39.267Z,69.80
2018-05-26T22:27:08.359Z,71.80
2018-05-26T22:29:37.464Z,72.10
2018-05-26T22:32:05.793Z,72.10
2018-05-26T22:34:34.133Z,72.30
2018-05-26T22:37:03.208Z,72.30
2018-05-26T22:39:32.284Z,72.30
2018-05-26T22:42:00.615Z,72.00
2018-05-26T22:44:28.949Z,72.80
2018-05-26T22:46:57.272Z,71.70
2018-05-26T22:49:26.368Z,72.80
2018-05-26T22:51:54.674Z,72.80
2018-05-26T22:54:23.013Z,72.90
2018-05-26T22:56:51.350Z,73.50
2018-05-26T22:59:19.654Z,74.00
2018-05-26T23:01:47.995Z,74.30
2018-05-26T23:04:16.307Z,74.80
2018-05-26T23:06:45.697Z,74.40
2018-05-26T23:09:14.015Z,75.00
2018-05-26T23:11:43.748Z,75.70
2018-05-26T23:14:12.194Z,75.30
2018-05-26T23:16:41.311Z,76.60
2018-05-26T23:19:09.791Z,76.80
2018-05-26T23:21:38.462Z,77.00
2018-05-26T23:24:06.773Z,76.40
2018-05-26T23:26:36.135Z,76.30
2018-05-26T23:29:04.552Z,76.50
2018-05-26T23:31:32.875Z,77.30
2018-05-26T23:34:01.252Z,78.10
2018-05-26T23:36:30.399Z,79.10
2018-05-26T23:38:58.733Z,79.10
2018-05-26T23:41:27.811Z,79.60
2018-05-26T23:43:56.902Z,80.30
2018-05-26T23:46:25.236Z,79.30
2018-05-26T23:48:53.716Z,80.00
2018-05-26T23:51:22.020Z,79.00
2018-05-26T23:53:50.313Z,80.60
2018-05-26T23:56:18.644Z,80.40
2018-05-26T23:58:46.959Z,81.20
